sensor_id;sensor_type;location;lat;lon;timestamp;pressure;altitude;pressure_sealevel;temperature;humidity
29385;BME280;16367;48.736;9.218;2023-04-29T00:01:23;91882.13;;;12.62;100.00
29385;BME280;16367;48.736;9.218;2023-04-29T00:03:26;93539.34;;;12.57;100.00
29385;BME280;16367;48.736;9.218;2023-04-29T00:05:33;93875.50;;;12.59;100.00
29385;BME280;16367;48.736;9.218;2023-04-29T00:07:36;94197.19;;;12.52;100.00
29385;BME280;16367;48.736;9.218;2023-04-29T00:09:39;95863.97;;;12.53;100.00
29385;BME280;16367;48.736;9.218;2023-04-29T00:11:42;97526.47;;;12.51;100.00
29385;BME280;16367;48.736;9.218;2023-04-29T00:13:44;97856.34;;;12.49;100.00
29385;BME280;16367;48.736;9.218;2023-04-29T00:15:47;98197.19;;;12.54;100.00
29385;BME280;16367;48.736;9.218;2023-04-29T00:17:52;98182.88;;;12.45;100.00
29385;BME280;16367;48.736;9.218;2023-04-29T00:19:55;99847.72;;;12.44;100.00
29385;BME280;16367;48.736;9.218;2023-04-29T00:21:57;100199.13;;;12.55;100.00
29385;BME280;16367;48.736;9.218;2023-04-29T00:24:00;97214.91;;;12.64;100.00
29385;BME280;16367;48.736;9.218;2023-04-29T00:26:03;92547.03;;;12.61;100.00
29385;BME280;16367;48.736;9.218;2023-04-29T00:28:06;91546.97;;;12.60;100.00
29385;BME280;16367;48.736;9.218;2023-04-29T00:30:09;89216.63;;;12.59;100.00
29385;BME280;16367;48.736;9.218;2023-04-29T00:32:12;87553.31;;;12.59;100.00
29385;BME280;16367;48.736;9.218;2023-04-29T00:34:16;85892.16;;;12.59;100.00
29385;BME280;16367;48.736;9.218;2023-04-29T00:36:19;83896.63;;;12.58;100.00
29385;BME280;16367;48.736;9.218;2023-04-29T00:38:21;82566.16;;;12.56;100.00
29385;BME280;16367;48.736;9.218;2023-04-29T00:40:26;83546.50;;;12.45;100.00
29385;BME280;16367;48.736;9.218;2023-04-29T00:42:30;85203.38;;;12.43;100.00
29385;BME280;16367;48.736;9.218;2023-04-29T00:44:33;88195.47;;;12.44;100.00
29385;BME280;16367;48.736;9.218;2023-04-29T00:46:36;89856.38;;;12.43;100.00
29385;BME280;16367;48.736;9.218;2023-04-29T00:48:39;89854.06;;;12.41;100.00
29385;BME280;16367;48.736;9.218;2023-04-29T00:50:44;91182.88;;;12.40;100.00
29385;BME280;16367;48.736;9.218;2023-04-29T00:52:47;92831.28;;;12.31;100.00
29385;BME280;16367;48.736;9.218;2023-04-29T00:54:51;94832.22;;;12.33;100.00
29385;BME280;16367;48.736;9.218;2023-04-29T00:56:54;94164.84;;;12.32;100.00
29385;BME280;16367;48.736;9.218;2023-04-29T00:58:57;94487.97;;;12.26;100.00
29385;BME280;16367;48.736;9.218;2023-04-29T01:01:03;96159.13;;;12.30;100.00
29385;BME280;16367;48.736;9.218;2023-04-29T01:03:07;96482.19;;;12.24;100.00
29385;BME280;16367;48.736;9.218;2023-04-29T01:05:10;97828.66;;;12.33;100.00
29385;BME280;16367;48.736;9.218;2023-04-29T01:07:17;97824.47;;;12.30;100.00
29385;BME280;16367;48.736;9.218;2023-04-29T01:09:28;97488.00;;;12.28;100.00
29385;BME280;16367;48.736;9.218;2023-04-29T01:11:38;96479.72;;;12.23;100.00
29385;BME280;16367;48.736;9.218;2023-04-29T01:13:49;96805.25;;;12.18;100.00
29385;BME280;16367;48.736;9.218;2023-04-29T01:16:00;97129.91;;;12.13;100.00
29385;BME280;16367;48.736;9.218;2023-04-29T01:18:05;99796.41;;;12.14;100.00
29385;BME280;16367;48.736;9.218;2023-04-29T01:20:10;101117.34;;;12.07;100.00
29385;BME280;16367;48.736;9.218;2023-04-29T01:22:15;101782.25;;;12.06;100.00
29385;BME280;16367;48.736;9.218;2023-04-29T01:24:20;102105.94;;;12.01;100.00
29385;BME280;16367;48.736;9.218;2023-04-29T01:26:23;102764.75;;;11.96;100.00
29385;BME280;16367;48.736;9.218;2023-04-29T01:28:42;104100.19;;;11.97;100.00
29385;BME280;16367;48.736;9.218;2023-04-29T01:30:53;104435.44;;;11.98;100.00
29385;BME280;16367;48.736;9.218;2023-04-29T01:33:02;104768.97;;;11.98;100.00
29385;BME280;16367;48.736;9.218;2023-04-29T01:35:14;103771.19;;;12.00;100.00
29385;BME280;16367;48.736;9.218;2023-04-29T01:37:27;102784.09;;;12.07;100.00
29385;BME280;16367;48.736;9.218;2023-04-29T01:39:44;100121.06;;;12.09;100.00
29385;BME280;16367;48.736;9.218;2023-04-29T01:41:52;98453.66;;;12.08;100.00
29385;BME280;16367;48.736;9.218;2023-04-29T01:43:58;96798.63;;;12.14;100.00
29385;BME280;16367;48.736;9.218;2023-04-29T01:46:05;94127.66;;;12.09;100.00
29385;BME280;16367;48.736;9.218;2023-04-29T01:48:08;92793.81;;;12.07;100.00
29385;BME280;16367;48.736;9.218;2023-04-29T01:50:11;90802.63;;;12.10;100.00
29385;BME280;16367;48.736;9.218;2023-04-29T01:52:14;89463.06;;;12.03;100.00
29385;BME280;16367;48.736;9.218;2023-04-29T01:54:16;87478.75;;;12.09;100.00
29385;BME280;16367;48.736;9.218;2023-04-29T01:56:21;84159.88;;;12.10;100.00
29385;BME280;16367;48.736;9.218;2023-04-29T01:58:23;81511.88;;;12.15;100.00
29385;BME280;16367;48.736;9.218;2023-04-29T02:00:26;78520.81;;;12.10;100.00
29385;BME280;16367;48.736;9.218;2023-04-29T02:02:29;78181.28;;;12.04;100.00
29385;BME280;16367;48.736;9.218;2023-04-29T02:04:32;78516.06;;;12.06;100.00
29385;BME280;16367;48.736;9.218;2023-04-29T02:06:35;76847.38;;;11.97;100.00
29385;BME280;16367;48.736;9.218;2023-04-29T02:08:37;76852.69;;;12.01;100.00
29385;BME280;16367;48.736;9.218;2023-04-29T02:10:40;75520.06;;;11.95;100.00
29385;BME280;16367;48.736;9.218;2023-04-29T02:12:44;75187.66;;;11.94;100.00
29385;BME280;16367;48.736;9.218;2023-04-29T02:14:50;73864.84;;;11.95;100.00
29385;BME280;16367;48.736;9.218;2023-04-29T02:16:53;74521.69;;;11.91;100.00
29385;BME280;16367;48.736;9.218;2023-04-29T02:18:56;76835.41;;;11.88;100.00
29385;BME280;16367;48.736;9.218;2023-04-29T02:20:59;77818.97;;;11.80;100.00
29385;BME280;16367;48.736;9.218;2023-04-29T02:23:03;79481.59;;;11.85;100.00
29385;BME280;16367;48.736;9.218;2023-04-29T02:25:06;80795.47;;;11.76;100.00
29385;BME280;16367;48.736;9.218;2023-04-29T02:27:09;82442.41;;;11.69;100.00
29385;BME280;16367;48.736;9.218;2023-04-29T02:29:13;83775.97;;;11.74;100.00
29385;BME280;16367;48.736;9.218;2023-04-29T02:31:16;82121.47;;;11.76;100.00
29385;BME280;16367;48.736;9.218;2023-04-29T02:33:19;80127.13;;;11.72;100.00
29385;BME280;16367;48.736;9.218;2023-04-29T02:35:22;79456.91;;;11.67;100.00
29385;BME280;16367;48.736;9.218;2023-04-29T02:37:24;77481.09;;;11.75;100.00
29385;BME280;16367;48.736;9.218;2023-04-29T02:39:27;72843.00;;;11.72;100.00
29385;BME280;16367;48.736;9.218;2023-04-29T02:41:30;70856.47;;;11.70;100.00
29385;BME280;16367;48.736;9.218;2023-04-29T02:43:33;69855.09;;;11.62;100.00
29385;BME280;16367;48.736;9.218;2023-04-29T02:45:38;69197.81;;;11.65;100.00
29385;BME280;16367;48.736;9.218;2023-04-29T02:47:41;67544.88;;;11.64;100.00
29385;BME280;16367;48.736;9.218;2023-04-29T02:49:44;65560.25;;;11.61;100.00
29385;BME280;16367;48.736;9.218;2023-04-29T02:51:47;69187.59;;;11.56;100.00
29385;BME280;16367;48.736;9.218;2023-04-29T02:53:51;70175.84;;;11.54;100.00
29385;BME280;16367;48.736;9.218;2023-04-29T02:55:53;70511.19;;;11.58;100.00
29385;BME280;16367;48.736;9.218;2023-04-29T02:57:57;70836.78;;;11.54;100.00
29385;BME280;16367;48.736;9.218;2023-04-29T03:00:00;72170.25;;;11.63;100.00
29385;BME280;16367;48.736;9.218;2023-04-29T03:02:05;71520.19;;;11.72;100.00
29385;BME280;16367;48.736;9.218;2023-04-29T03:04:08;69206.28;;;11.72;100.00
29385;BME280;16367;48.736;9.218;2023-04-29T03:06:11;66886.69;;;11.66;100.00
29385;BME280;16367;48.736;9.218;2023-04-29T03:08:14;69856.31;;;11.63;100.00
29385;BME280;16367;48.736;9.218;2023-04-29T03:10:17;72169.00;;;11.62;100.00
29385;BME280;16367;48.736;9.218;2023-04-29T03:12:20;76126.97;;;11.53;100.00
29385;BME280;16367;48.736;9.218;2023-04-29T03:14:23;78775.28;;;11.53;100.00
29385;BME280;16367;48.736;9.218;2023-04-29T03:16:26;78110.34;;;11.51;100.00
29385;BME280;16367;48.736;9.218;2023-04-29T03:18:31;78764.41;;;11.45;100.00
29385;BME280;16367;48.736;9.218;2023-04-29T03:20:33;81408.50;;;11.41;100.00
29385;BME280;16367;48.736;9.218;2023-04-29T03:22:36;84068.53;;;11.47;100.00
29385;BME280;16367;48.736;9.218;2023-04-29T03:24:39;85059.63;;;11.44;100.00
29385;BME280;16367;48.736;9.218;2023-04-29T03:26:42;86389.31;;;11.46;100.00
29385;BME280;16367;48.736;9.218;2023-04-29T03:28:45;85389.78;;;11.43;100.00
29385;BME280;16367;48.736;9.218;2023-04-29T03:30:48;84062.72;;;11.43;100.00
29385;BME280;16367;48.736;9.218;2023-04-29T03:32:51;84056.91;;;11.39;100.00
29385;BME280;16367;48.736;9.218;2023-04-29T03:34:55;85376.53;;;11.34;100.00
29385;BME280;16367;48.736;9.218;2023-04-29T03:36:58;86370.75;;;11.34;100.00
29385;BME280;16367;48.736;9.218;2023-04-29T03:39:01;88035.50;;;11.38;100.00
29385;BME280;16367;48.736;9.218;2023-04-29T03:41:04;88688.53;;;11.31;100.00
29385;BME280;16367;48.736;9.218;2023-04-29T03:43:08;89028.06;;;11.36;100.00
29385;BME280;16367;48.736;9.218;2023-04-29T03:45:10;89347.66;;;11.27;100.00
29385;BME280;16367;48.736;9.218;2023-04-29T03:47:14;90029.31;;;11.39;100.00
29385;BME280;16367;48.736;9.218;2023-04-29T03:49:17;88046.88;;;11.45;100.00
29385;BME280;16367;48.736;9.218;2023-04-29T03:51:21;83731.91;;;11.43;100.00
29385;BME280;16367;48.736;9.218;2023-04-29T03:53:25;82422.44;;;11.55;100.00
29385;BME280;16367;48.736;9.218;2023-04-29T03:55:27;73482.91;;;11.55;100.00
29385;BME280;16367;48.736;9.218;2023-04-29T03:57:30;67861.00;;;11.52;100.00
29385;BME280;16367;48.736;9.218;2023-04-29T03:59:33;64231.13;;;11.53;100.00
29385;BME280;16367;48.736;9.218;2023-04-29T04:01:36;62911.00;;;11.52;100.00
29385;BME280;16367;48.736;9.218;2023-04-29T04:03:39;61911.34;;;11.43;100.00
29385;BME280;16367;48.736;9.218;2023-04-29T04:05:44;62235.59;;;11.38;100.00
29385;BME280;16367;48.736;9.218;2023-04-29T04:07:48;62564.22;;;11.37;100.00
29385;BME280;16367;48.736;9.218;2023-04-29T04:09:51;63220.44;;;11.34;100.00
29385;BME280;16367;48.736;9.218;2023-04-29T04:11:54;64536.31;;;11.31;100.00
29385;BME280;16367;48.736;9.218;2023-04-29T04:13:57;65187.56;;;11.23;100.00
29385;BME280;16367;48.736;9.218;2023-04-29T04:16:00;65522.56;;;11.27;100.00
29385;BME280;16367;48.736;9.218;2023-04-29T04:18:03;62876.41;;;11.20;100.00
29385;BME280;16367;48.736;9.218;2023-04-29T04:20:07;62546.75;;;11.20;100.00
29385;BME280;16367;48.736;9.218;2023-04-29T04:22:09;60241.00;;;11.21;100.00
29385;BME280;16367;48.736;9.218;2023-04-29T04:24:14;56615.22;;;11.18;100.00
29385;BME280;16367;48.736;9.218;2023-04-29T04:26:17;54646.22;;;11.23;100.00
29385;BME280;16367;48.736;9.218;2023-04-29T04:28:21;52013.75;;;11.22;100.00
29385;BME280;16367;48.736;9.218;2023-04-29T04:30:24;46101.94;;;11.24;100.00
29385;BME280;16367;48.736;9.218;2023-04-29T04:32:26;42820.78;;;11.24;100.00
29385;BME280;16367;48.736;9.218;2023-04-29T04:34:29;40845.81;;;11.14;100.00
29385;BME280;16367;48.736;9.218;2023-04-29T04:36:32;48391.19;;;11.13;100.00
29385;BME280;16367;48.736;9.218;2023-04-29T04:38:35;53651.78;;;11.15;100.00
29385;BME280;16367;48.736;9.218;2023-04-29T04:40:41;53978.28;;;11.13;100.00
29385;BME280;16367;48.736;9.218;2023-04-29T04:42:44;55291.63;;;11.10;100.00
29385;BME280;16367;48.736;9.218;2023-04-29T04:45:00;55303.78;;;11.23;100.00
29385;BME280;16367;48.736;9.218;2023-04-29T04:47:06;51017.63;;;11.11;100.00
29385;BME280;16367;48.736;9.218;2023-04-29T04:49:09;46748.16;;;11.11;100.00
29385;BME280;16367;48.736;9.218;2023-04-29T04:51:12;44782.59;;;11.16;100.00
29385;BME280;16367;48.736;9.218;2023-04-29T04:53:15;41502.94;;;11.16;100.00
29385;BME280;16367;48.736;9.218;2023-04-29T04:55:18;38888.63;;;11.27;100.00
29385;BME280;16367;48.736;9.218;2023-04-29T04:57:22;28743.88;;;11.30;100.00
29385;BME280;16367;48.736;9.218;2023-04-29T04:59:25;24495.69;;;11.27;100.00
29385;BME280;16367;48.736;9.218;2023-04-29T05:01:28;24500.09;;;11.37;100.00
29385;BME280;16367;48.736;9.218;2023-04-29T05:03:30;18625.47;;;11.34;100.00
29385;BME280;16367;48.736;9.218;2023-04-29T05:05:34;14388.13;;;11.30;100.00
29385;BME280;16367;48.736;9.218;2023-04-29T05:07:37;12112.91;;;11.45;100.00
29385;BME280;16367;48.736;9.218;2023-04-29T05:09:40;2684.34;;;11.55;100.00
29385;BME280;16367;48.736;9.218;2023-04-29T05:11:43;735.88;;;11.55;100.00
29385;BME280;16367;48.736;9.218;2023-04-29T05:13:48;-238.25;;;11.50;100.00
29385;BME280;16367;48.736;9.218;2023-04-29T05:15:51;-4305.66;;;11.59;100.00
29385;BME280;16367;48.736;9.218;2023-04-29T05:17:54;-13508.97;;;11.66;100.00
29385;BME280;16367;48.736;9.218;2023-04-29T05:19:56;-16645.72;;;11.61;100.00
29385;BME280;16367;48.736;9.218;2023-04-29T05:21:59;-14592.56;;;11.63;100.00
29385;BME280;16367;48.736;9.218;2023-04-29T05:24:02;-18572.84;;;11.65;100.00
29385;BME280;16367;48.736;9.218;2023-04-29T05:26:05;-19920.72;;;11.66;100.00
29385;BME280;16367;48.736;9.218;2023-04-29T05:28:08;-18337.31;;;11.61;100.00
29385;BME280;16367;48.736;9.218;2023-04-29T05:30:12;-16038.19;;;11.79;100.00
29385;BME280;16367;48.736;9.218;2023-04-29T05:32:16;-20030.13;;;11.89;100.00
29385;BME280;16367;48.736;9.218;2023-04-29T05:34:19;-23546.25;;;11.96;100.00
29385;BME280;16367;48.736;9.218;2023-04-29T05:36:21;-23550.53;;;12.10;100.00
29385;BME280;16367;48.736;9.218;2023-04-29T05:38:24;-23554.03;;;12.21;100.00
29385;BME280;16367;48.736;9.218;2023-04-29T05:40:29;-23555.28;;;12.25;100.00
29385;BME280;16367;48.736;9.218;2023-04-29T05:42:32;-23554.50;;;12.23;100.00
29385;BME280;16367;48.736;9.218;2023-04-29T05:44:35;-23555.91;;;12.27;100.00
29385;BME280;16367;48.736;9.218;2023-04-29T05:46:39;-23554.19;;;12.22;100.00
29385;BME280;16367;48.736;9.218;2023-04-29T05:48:42;-23561.44;;;12.45;100.00
29385;BME280;16367;48.736;9.218;2023-04-29T05:50:45;-23566.50;;;12.61;100.00
29385;BME280;16367;48.736;9.218;2023-04-29T05:52:48;-23571.56;;;12.77;100.00
29385;BME280;16367;48.736;9.218;2023-04-29T05:54:52;-23573.63;;;12.84;100.00
29385;BME280;16367;48.736;9.218;2023-04-29T05:56:55;-23571.09;;;12.76;100.00
29385;BME280;16367;48.736;9.218;2023-04-29T05:58:58;-23567.63;;;12.64;100.00
29385;BME280;16367;48.736;9.218;2023-04-29T06:01:01;-23570.31;;;12.73;100.00
29385;BME280;16367;48.736;9.218;2023-04-29T06:03:05;-23568.72;;;12.68;100.00
29385;BME280;16367;48.736;9.218;2023-04-29T06:05:08;-23571.72;;;12.78;100.00
29385;BME280;16367;48.736;9.218;2023-04-29T06:07:12;-23563.97;;;12.53;100.00
29385;BME280;16367;48.736;9.218;2023-04-29T06:09:15;-23565.41;;;12.57;100.00
29385;BME280;16367;48.736;9.218;2023-04-29T06:11:28;-23573.78;;;12.84;100.00
29385;BME280;16367;48.736;9.218;2023-04-29T06:13:31;-23576.00;;;12.91;100.00
29385;BME280;16367;48.736;9.218;2023-04-29T06:15:33;-23572.34;;;12.80;100.00
29385;BME280;16367;48.736;9.218;2023-04-29T06:17:36;-23575.22;;;12.89;100.00
29385;BME280;16367;48.736;9.218;2023-04-29T06:19:40;-23587.53;;;13.28;100.00
29385;BME280;16367;48.736;9.218;2023-04-29T06:21:43;-23578.69;;;13.00;100.00
29385;BME280;16367;48.736;9.218;2023-04-29T06:23:46;-23573.31;;;12.83;100.00
29385;BME280;16367;48.736;9.218;2023-04-29T06:25:49;-23577.91;;;12.97;100.00
29385;BME280;16367;48.736;9.218;2023-04-29T06:27:55;-23585.97;;;13.23;100.00
29385;BME280;16367;48.736;9.218;2023-04-29T06:29:58;-23583.59;;;13.15;100.00
29385;BME280;16367;48.736;9.218;2023-04-29T06:32:01;-23583.59;;;13.15;100.00
29385;BME280;16367;48.736;9.218;2023-04-29T06:34:04;-23589.13;;;13.33;100.00
29385;BME280;16367;48.736;9.218;2023-04-29T06:36:08;-23590.38;;;13.37;100.00
29385;BME280;16367;48.736;9.218;2023-04-29T06:38:11;-23583.44;;;13.15;100.00
29385;BME280;16367;48.736;9.218;2023-04-29T06:40:14;-23586.28;;;13.24;100.00
29385;BME280;16367;48.736;9.218;2023-04-29T06:42:17;-23576.47;;;12.93;100.00
29385;BME280;16367;48.736;9.218;2023-04-29T06:44:19;-23581.38;;;13.08;100.00
29385;BME280;16367;48.736;9.218;2023-04-29T06:46:22;-23572.84;;;12.81;100.00
29385;BME280;16367;48.736;9.218;2023-04-29T06:48:25;-23568.25;;;12.66;100.00
29385;BME280;16367;48.736;9.218;2023-04-29T06:50:28;-23571.72;;;12.78;100.00
29385;BME280;16367;48.736;9.218;2023-04-29T06:52:32;-23570.31;;;12.73;100.00
29385;BME280;16367;48.736;9.218;2023-04-29T06:54:35;-23566.19;;;12.60;100.00
29385;BME280;16367;48.736;9.218;2023-04-29T06:56:38;-23566.81;;;12.62;100.00
29385;BME280;16367;48.736;9.218;2023-04-29T06:58:41;-23567.31;;;12.63;100.00
29385;BME280;16367;48.736;9.218;2023-04-29T07:00:44;-23567.63;;;12.64;100.00
29385;BME280;16367;48.736;9.218;2023-04-29T07:02:47;-23572.34;;;12.80;100.00
29385;BME280;16367;48.736;9.218;2023-04-29T07:04:50;-23572.19;;;12.79;100.00
29385;BME280;16367;48.736;9.218;2023-04-29T07:06:53;-23568.25;;;12.66;100.00
29385;BME280;16367;48.736;9.218;2023-04-29T07:08:57;-23576.94;;;12.94;100.00
29385;BME280;16367;48.736;9.218;2023-04-29T07:11:00;-23576.63;;;12.93;100.00
29385;BME280;16367;48.736;9.218;2023-04-29T07:13:03;-23581.53;;;13.09;100.00
29385;BME280;16367;48.736;9.218;2023-04-29T07:15:07;-23578.69;;;13.00;100.00
29385;BME280;16367;48.736;9.218;2023-04-29T07:17:09;-23587.84;;;13.29;100.00
29385;BME280;16367;48.736;9.218;2023-04-29T07:19:14;-23586.91;;;13.26;100.00
29385;BME280;16367;48.736;9.218;2023-04-29T07:21:17;-23589.13;;;13.33;100.00
29385;BME280;16367;48.736;9.218;2023-04-29T07:23:20;-23583.13;;;13.14;100.00
29385;BME280;16367;48.736;9.218;2023-04-29T07:25:25;-23581.22;;;13.08;100.00
29385;BME280;16367;48.736;9.218;2023-04-29T07:27:28;-23590.84;;;13.38;100.00
29385;BME280;16367;48.736;9.218;2023-04-29T07:29:30;-23592.91;;;13.45;100.00
29385;BME280;16367;48.736;9.218;2023-04-29T07:31:34;-23597.50;;;13.60;100.00
29385;BME280;16367;48.736;9.218;2023-04-29T07:33:39;-23583.44;;;13.15;100.00
29385;BME280;16367;48.736;9.218;2023-04-29T07:35:41;-23583.91;;;13.16;100.00
29385;BME280;16367;48.736;9.218;2023-04-29T07:37:45;-23595.75;;;13.54;100.00
29385;BME280;16367;48.736;9.218;2023-04-29T07:39:49;-23582.16;;;13.11;100.00
29385;BME280;16367;48.736;9.218;2023-04-29T07:41:53;-23586.59;;;13.25;100.00
29385;BME280;16367;48.736;9.218;2023-04-29T07:43:55;-23586.28;;;13.24;100.00
29385;BME280;16367;48.736;9.218;2023-04-29T07:45:58;-23584.38;;;13.18;100.00
29385;BME280;16367;48.736;9.218;2023-04-29T07:48:01;-23583.44;;;13.15;100.00
29385;BME280;16367;48.736;9.218;2023-04-29T07:50:05;-23590.38;;;13.37;100.00
29385;BME280;16367;48.736;9.218;2023-04-29T07:52:07;-23594.81;;;13.51;100.00
29385;BME280;16367;48.736;9.218;2023-04-29T07:54:10;-23597.34;;;13.59;100.00
29385;BME280;16367;48.736;9.218;2023-04-29T07:56:13;-23593.22;;;13.46;100.00
29385;BME280;16367;48.736;9.218;2023-04-29T07:58:17;-23587.84;;;13.29;100.00
29385;BME280;16367;48.736;9.218;2023-04-29T08:00:21;-23596.38;;;13.56;100.00
29385;BME280;16367;48.736;9.218;2023-04-29T08:02:23;-23595.13;;;13.52;100.00
29385;BME280;16367;48.736;9.218;2023-04-29T08:04:26;-23601.13;;;13.71;100.00
29385;BME280;16367;48.736;9.218;2023-04-29T08:06:30;-23595.13;;;13.52;100.00
29385;BME280;16367;48.736;9.218;2023-04-29T08:08:33;-23601.75;;;13.73;100.00
29385;BME280;16367;48.736;9.218;2023-04-29T08:10:37;-23596.88;;;13.58;100.00
29385;BME280;16367;48.736;9.218;2023-04-29T08:12:44;-23591.97;;;13.42;100.00
29385;BME280;16367;48.736;9.218;2023-04-29T08:14:48;-23597.34;;;13.59;100.00
29385;BME280;16367;48.736;9.218;2023-04-29T08:16:51;-23598.91;;;13.64;100.00
29385;BME280;16367;48.736;9.218;2023-04-29T08:18:54;-23609.66;;;13.98;100.00
29385;BME280;16367;48.736;9.218;2023-04-29T08:20:57;-23606.50;;;13.88;100.00
29385;BME280;16367;48.736;9.218;2023-04-29T08:23:00;-23597.66;;;13.60;100.00
29385;BME280;16367;48.736;9.218;2023-04-29T08:25:03;-23590.38;;;13.37;100.00
29385;BME280;16367;48.736;9.218;2023-04-29T08:27:06;-23608.56;;;13.95;100.00
29385;BME280;16367;48.736;9.218;2023-04-29T08:29:09;-23601.91;;;13.74;100.00
29385;BME280;16367;48.736;9.218;2023-04-29T08:31:16;-23595.13;;;13.52;100.00
29385;BME280;16367;48.736;9.218;2023-04-29T08:33:19;-23612.19;;;14.06;100.00
29385;BME280;16367;48.736;9.218;2023-04-29T08:35:22;-23604.13;;;13.81;100.00
29385;BME280;16367;48.736;9.218;2023-04-29T08:37:25;-23608.06;;;13.93;100.00
29385;BME280;16367;48.736;9.218;2023-04-29T08:39:28;-23611.53;;;14.04;100.00
29385;BME280;16367;48.736;9.218;2023-04-29T08:41:30;-23607.59;;;13.92;100.00
29385;BME280;16367;48.736;9.218;2023-04-29T08:43:34;-23609.81;;;13.99;100.00
29385;BME280;16367;48.736;9.218;2023-04-29T08:45:38;-23605.84;;;13.86;100.00
29385;BME280;16367;48.736;9.218;2023-04-29T08:47:42;-23603.97;;;13.80;99.26
29385;BME280;16367;48.736;9.218;2023-04-29T08:49:46;-23607.44;;;13.91;100.00
29385;BME280;16367;48.736;9.218;2023-04-29T08:51:48;-23602.41;;;13.75;99.30
29385;BME280;16367;48.736;9.218;2023-04-29T08:53:52;-23591.00;;;13.39;100.00
29385;BME280;16367;48.736;9.218;2023-04-29T08:55:56;-23606.81;;;13.89;100.00
29385;BME280;16367;48.736;9.218;2023-04-29T08:58:01;-23612.34;;;14.07;100.00
29385;BME280;16367;48.736;9.218;2023-04-29T09:00:05;-23602.69;;;13.76;100.00
29385;BME280;16367;48.736;9.218;2023-04-29T09:02:12;-23600.81;;;13.70;100.00
29385;BME280;16367;48.736;9.218;2023-04-29T09:04:29;-23586.91;;;13.26;100.00
29385;BME280;16367;48.736;9.218;2023-04-29T09:06:38;-23585.00;;;13.20;100.00
29385;BME280;16367;48.736;9.218;2023-04-29T09:08:41;-23588.81;;;13.32;100.00
29385;BME280;16367;48.736;9.218;2023-04-29T09:10:44;-23589.75;;;13.35;100.00
29385;BME280;16367;48.736;9.218;2023-04-29T09:12:46;-23586.44;;;13.24;100.00
29385;BME280;16367;48.736;9.218;2023-04-29T09:14:49;-23600.81;;;13.70;100.00
29385;BME280;16367;48.736;9.218;2023-04-29T09:16:52;-23615.50;;;14.17;100.00
29385;BME280;16367;48.736;9.218;2023-04-29T09:18:55;-23605.38;;;13.85;100.00
29385;BME280;16367;48.736;9.218;2023-04-29T09:21:11;-23606.34;;;13.88;100.00
29385;BME280;16367;48.736;9.218;2023-04-29T09:23:14;-23594.97;;;13.52;100.00
29385;BME280;16367;48.736;9.218;2023-04-29T09:25:17;-23619.28;;;14.29;100.00
29385;BME280;16367;48.736;9.218;2023-04-29T09:27:26;-23592.28;;;13.43;100.00
29385;BME280;16367;48.736;9.218;2023-04-29T09:29:29;-23590.38;;;13.37;100.00
29385;BME280;16367;48.736;9.218;2023-04-29T09:31:33;-23589.75;;;13.35;100.00
29385;BME280;16367;48.736;9.218;2023-04-29T09:33:49;-23596.38;;;13.56;100.00
29385;BME280;16367;48.736;9.218;2023-04-29T09:35:53;-23604.44;;;13.82;100.00
29385;BME280;16367;48.736;9.218;2023-04-29T09:38:08;-23612.50;;;14.07;100.00
29385;BME280;16367;48.736;9.218;2023-04-29T09:40:26;-23618.50;;;14.27;100.00
29385;BME280;16367;48.736;9.218;2023-04-29T09:42:41;-23617.69;;;14.24;100.00
29385;BME280;16367;48.736;9.218;2023-04-29T09:44:44;-23611.22;;;14.03;100.00
29385;BME280;16367;48.736;9.218;2023-04-29T09:46:53;-23620.09;;;14.32;100.00
29385;BME280;16367;48.736;9.218;2023-04-29T09:48:57;-23636.50;;;14.84;100.00
29385;BME280;16367;48.736;9.218;2023-04-29T09:51:01;-23653.22;;;15.37;100.00
29385;BME280;16367;48.736;9.218;2023-04-29T09:53:06;-23697.97;;;16.80;92.73
29385;BME280;16367;48.736;9.218;2023-04-29T09:55:10;-23679.69;;;16.22;97.54
29385;BME280;16367;48.736;9.218;2023-04-29T09:57:13;-23674.81;;;16.06;91.14
29385;BME280;16367;48.736;9.218;2023-04-29T09:59:16;-23674.50;;;16.05;93.18
29385;BME280;16367;48.736;9.218;2023-04-29T10:01:21;-23663.94;;;15.72;93.78
29385;BME280;16367;48.736;9.218;2023-04-29T10:03:24;-23675.91;;;16.10;92.77
29385;BME280;16367;48.736;9.218;2023-04-29T10:05:28;-23683.94;;;16.35;91.13
29385;BME280;16367;48.736;9.218;2023-04-29T10:07:32;-23703.16;;;16.97;84.10
29385;BME280;16367;48.736;9.218;2023-04-29T10:09:38;-23728.19;;;17.77;81.87
29385;BME280;16367;48.736;9.218;2023-04-29T10:11:41;-23677.03;;;16.13;85.90
29385;BME280;16367;48.736;9.218;2023-04-29T10:13:45;-23710.25;;;17.20;82.60
29385;BME280;16367;48.736;9.218;2023-04-29T10:15:52;-23748.78;;;18.43;76.60
29385;BME280;16367;48.736;9.218;2023-04-29T10:18:09;-23752.88;;;18.56;76.68
29385;BME280;16367;48.736;9.218;2023-04-29T10:20:21;-23746.13;;;18.34;75.57
29385;BME280;16367;48.736;9.218;2023-04-29T10:22:29;-23673.72;;;16.03;80.03
29385;BME280;16367;48.736;9.218;2023-04-29T10:24:37;-23706.78;;;17.08;79.84
29385;BME280;16367;48.736;9.218;2023-04-29T10:26:40;-23724.44;;;17.65;80.01
29385;BME280;16367;48.736;9.218;2023-04-29T10:28:46;-23695.78;;;16.73;77.87
29385;BME280;16367;48.736;9.218;2023-04-29T10:30:50;-23673.41;;;16.02;80.13
29385;BME280;16367;48.736;9.218;2023-04-29T10:32:54;-23684.91;;;16.38;78.30
29385;BME280;16367;48.736;9.218;2023-04-29T10:34:59;-23721.91;;;17.57;76.82
29385;BME280;16367;48.736;9.218;2023-04-29T10:37:04;-23722.22;;;17.58;75.44
29385;BME280;16367;48.736;9.218;2023-04-29T10:39:13;-23749.28;;;18.44;73.56
29385;BME280;16367;48.736;9.218;2023-04-29T10:41:21;-23765.16;;;18.95;67.24
29385;BME280;16367;48.736;9.218;2023-04-29T10:43:26;-23695.44;;;16.72;75.96
29385;BME280;16367;48.736;9.218;2023-04-29T10:45:30;-23695.16;;;16.71;77.14